ADDS METAR Data INFO
IDs: Format: Raw Decoded Include TAF

Data at: 2300 UTC 21 Feb 2018

KGZH 212253Z AUTO 17011KT 10SM SCT032 BKN070 26/18 A3028 RMK AO2 SLP249 T02560183 $
KGZH 212153Z AUTO 17014KT 10SM SCT036 BKN070 27/18 A3026 RMK AO2 SLP243 T02670178 $
KGZH 212053Z AUTO 16011KT 10SM FEW041 BKN060 BKN075 28/18 A3026 RMK AO2 SLP243 T02830178 56017 $
KGZH 211953Z AUTO 18014G21KT 10SM FEW044 SCT060 BKN075 29/17 A3027 RMK AO2 SLP246 T02940167 $
KGZH 211853Z AUTO 17011G20KT 10SM FEW040 BKN060 29/17 A3028 RMK AO2 SLP250 T02940172 $
KGZH 211753Z AUTO 16010G18KT 10SM 28/18 A3031 RMK AO2 SLP260 T02830178 10283 20200 $
KGZH 211653Z AUTO 18014KT 10SM FEW030 BKN039 BKN055 26/18 A3034 RMK AO2 SLP271 T02610178
KGZH 211609Z AUTO 17014G19KT 10SM FEW024 BKN031 26/18 A3035 RMK AO2 T02560183
KGZH 211553Z AUTO 17014G21KT 10SM BKN024 OVC031 26/19 A3035 RMK AO2 SLP274 T02560189
KGZH 211453Z AUTO 16009KT 10SM FEW017 OVC024 23/18 A3034 RMK AO2 SLP272 T02330183 53007
KGZH 211417Z AUTO 14005KT 10SM SCT025 BKN029 22/19 A3034 RMK AO2 T02220189
KGZH 211353Z AUTO 14006KT 10SM FEW020 BKN030 21/19 A3033 RMK AO2 SLP268 T02060189
KGZH 211349Z AUTO 14006KT 10SM FEW024 BKN030 21/19 A3033 RMK AO2
KGZH 211321Z AUTO 14006KT 10SM BKN026 BKN031 21/19 A3033 RMK AO2 T02060189
KGZH 211308Z AUTO 14005KT 9SM SCT027 20/19 A3033 RMK AO2 T02000189
KGZH 211253Z AUTO 13007KT 8SM BKN025 20/19 A3032 RMK AO2 SLP265 T02000189
KGZH 211230Z AUTO 13006KT 8SM FEW009 SCT015 OVC023 20/19 A3032 RMK AO2 T02000189
KGZH 210753Z AUTO 15004KT 10SM OVC013 22/19 A3029 RMK AO2 SLP255 T02170189
KGZH 210653Z AUTO 15006KT 10SM OVC012 22/19 A3030 RMK AO2 SLP257 T02220194
KGZH 201453Z AUTO 14010KT 10SM CLR 22/16 A3028 RMK AO2 SLP251 T02170161 53008
KGZH 201353Z AUTO 12005KT 10SM CLR 18/16 A3026 RMK AO2 SLP245 T01780156
KGZH 201253Z AUTO 00000KT 10SM OVC055 14/13 A3025 RMK AO2 SLP242 T01390128
KGZH 201232Z AUTO 00000KT 6SM BR BKN050 13/12 A3025 RMK AO2 T01280117
KGZH 201224Z AUTO 00000KT 2SM BR FEW003 BKN050 13/12 A3025 RMK AO2 T01280117
KGZH 201209Z AUTO 00000KT 3/4SM BR SCT003 BKN050 13/12 A3026 RMK AO2 T01330117
KGZH 201204Z AUTO 00000KT 1 3/4SM BR BKN003 BKN050 13/12 A3026 RMK AO2 T01330117
KGZH 201153Z AUTO 00000KT 2SM BR SCT002 SCT050 13/12 A3026 RMK AO2 VIS 1V4 SLP243 T01280117 10167 20128 53006
KGZH 201142Z AUTO 00000KT 2 1/2SM BR CLR 13/12 A3026 RMK AO2 T01330122
KGZH 201119Z AUTO 00000KT 1 1/4SM BR SCT003 13/12 A3025 RMK AO2 T01330122